sensor_id;sensor_type;location;lat;lon;timestamp;pressure;altitude;pressure_sealevel;temperature;humidity
37066;BME280;22981;43.080;25.550;2023-01-10T00:02:17;98876.69;;;7.81;63.96
37066;BME280;22981;43.080;25.550;2023-01-10T00:04:44;98874.54;;;7.80;64.14
37066;BME280;22981;43.080;25.550;2023-01-10T00:07:12;98872.06;;;7.78;64.29
37066;BME280;22981;43.080;25.550;2023-01-10T00:09:39;98876.06;;;7.78;64.46
37066;BME280;22981;43.080;25.550;2023-01-10T00:12:07;98867.88;;;7.80;64.70
37066;BME280;22981;43.080;25.550;2023-01-10T00:14:52;98861.22;;;7.80;64.65
37066;BME280;22981;43.080;25.550;2023-01-10T00:17:19;98865.28;;;7.83;64.61
37066;BME280;22981;43.080;25.550;2023-01-10T00:19:47;98870.19;;;7.86;64.58
37066;BME280;22981;43.080;25.550;2023-01-10T00:22:14;98864.11;;;7.88;64.62
37066;BME280;22981;43.080;25.550;2023-01-10T00:24:44;98877.82;;;7.91;64.60
37066;BME280;22981;43.080;25.550;2023-01-10T00:27:11;98881.63;;;7.93;64.67
37066;BME280;22981;43.080;25.550;2023-01-10T00:29:40;98879.31;;;7.96;64.66
37066;BME280;22981;43.080;25.550;2023-01-10T00:32:08;98877.27;;;7.98;64.65
37066;BME280;22981;43.080;25.550;2023-01-10T00:34:35;98866.76;;;8.03;64.61
37066;BME280;22981;43.080;25.550;2023-01-10T00:37:03;98866.39;;;8.09;64.46
37066;BME280;22981;43.080;25.550;2023-01-10T00:39:30;98871.98;;;8.17;64.31
37066;BME280;22981;43.080;25.550;2023-01-10T00:41:58;98870.66;;;8.26;64.07
37066;BME280;22981;43.080;25.550;2023-01-10T00:44:43;98875.52;;;8.36;63.87
37066;BME280;22981;43.080;25.550;2023-01-10T00:47:12;98865.75;;;8.39;63.76
37066;BME280;22981;43.080;25.550;2023-01-10T00:49:40;98867.76;;;8.43;63.63
37066;BME280;22981;43.080;25.550;2023-01-10T00:52:07;98861.93;;;8.44;63.64
37066;BME280;22981;43.080;25.550;2023-01-10T00:54:35;98865.99;;;8.46;63.73
37066;BME280;22981;43.080;25.550;2023-01-10T00:57:02;98870.09;;;8.58;63.74
37066;BME280;22981;43.080;25.550;2023-01-10T00:59:30;98862.90;;;8.68;63.89
37066;BME280;22981;43.080;25.550;2023-01-10T01:01:57;98865.19;;;8.73;63.79
37066;BME280;22981;43.080;25.550;2023-01-10T01:04:25;98858.37;;;8.77;63.94
37066;BME280;22981;43.080;25.550;2023-01-10T01:06:53;98857.94;;;8.81;64.07
37066;BME280;22981;43.080;25.550;2023-01-10T01:09:20;98840.06;;;8.81;64.23
37066;BME280;22981;43.080;25.550;2023-01-10T01:11:48;98836.06;;;8.81;64.42
37066;BME280;22981;43.080;25.550;2023-01-10T01:14:15;98841.19;;;8.83;64.55
37066;BME280;22981;43.080;25.550;2023-01-10T01:16:43;98843.02;;;8.82;64.73
37066;BME280;22981;43.080;25.550;2023-01-10T01:19:10;98844.16;;;8.84;64.91
37066;BME280;22981;43.080;25.550;2023-01-10T01:21:38;98838.00;;;8.83;65.10
37066;BME280;22981;43.080;25.550;2023-01-10T01:24:06;98831.09;;;8.85;65.23
37066;BME280;22981;43.080;25.550;2023-01-10T01:26:34;98821.23;;;8.85;65.39
37066;BME280;22981;43.080;25.550;2023-01-10T01:29:01;98824.78;;;8.97;65.56
37066;BME280;22981;43.080;25.550;2023-01-10T01:31:29;98824.89;;;9.12;65.64
37066;BME280;22981;43.080;25.550;2023-01-10T01:33:57;98819.11;;;9.15;65.40
37066;BME280;22981;43.080;25.550;2023-01-10T01:36:24;98823.77;;;9.19;65.27
37066;BME280;22981;43.080;25.550;2023-01-10T01:38:52;98821.31;;;9.27;65.22
37066;BME280;22981;43.080;25.550;2023-01-10T01:41:19;98810.99;;;9.31;65.04
37066;BME280;22981;43.080;25.550;2023-01-10T01:44:09;98810.91;;;9.28;65.02
37066;BME280;22981;43.080;25.550;2023-01-10T01:46:36;98810.91;;;9.28;65.09
37066;BME280;22981;43.080;25.550;2023-01-10T01:49:08;98818.03;;;9.34;65.00
37066;BME280;22981;43.080;25.550;2023-01-10T01:51:35;98804.73;;;9.37;64.84
37066;BME280;22981;43.080;25.550;2023-01-10T01:54:04;98798.05;;;9.37;64.76
37066;BME280;22981;43.080;25.550;2023-01-10T01:56:41;98802.66;;;9.39;64.81
37066;BME280;22981;43.080;25.550;2023-01-10T01:59:11;98798.53;;;9.45;64.71
37066;BME280;22981;43.080;25.550;2023-01-10T02:01:41;98814.04;;;9.46;64.68
37066;BME280;22981;43.080;25.550;2023-01-10T02:04:55;98791.86;;;9.45;64.62
37066;BME280;22981;43.080;25.550;2023-01-10T02:06:45;98791.73;;;9.40;64.65
37066;BME280;22981;43.080;25.550;2023-01-10T02:09:28;98811.77;;;9.40;64.80
37066;BME280;22981;43.080;25.550;2023-01-10T02:11:56;98799.67;;;9.38;64.77
37066;BME280;22981;43.080;25.550;2023-01-10T02:14:24;98790.27;;;9.35;64.81
37066;BME280;22981;43.080;25.550;2023-01-10T02:16:52;98791.69;;;9.28;64.93
37066;BME280;22981;43.080;25.550;2023-01-10T02:19:43;98787.27;;;9.22;65.10
37066;BME280;22981;43.080;25.550;2023-01-10T02:22:20;98795.97;;;9.18;65.18
37066;BME280;22981;43.080;25.550;2023-01-10T02:39:16;98780.13;;;9.05;65.59
37066;BME280;22981;43.080;25.550;2023-01-10T02:42:01;98789.84;;;9.08;65.56
37066;BME280;22981;43.080;25.550;2023-01-10T02:44:39;98768.53;;;9.11;65.46
37066;BME280;22981;43.080;25.550;2023-01-10T02:47:04;98771.48;;;9.12;65.37
37066;BME280;22981;43.080;25.550;2023-01-10T02:49:41;98764.81;;;9.12;65.36
37066;BME280;22981;43.080;25.550;2023-01-10T02:52:10;98757.93;;;9.13;65.41
37066;BME280;22981;43.080;25.550;2023-01-10T02:54:38;98765.47;;;9.16;65.31
37066;BME280;22981;43.080;25.550;2023-01-10T02:57:29;98765.17;;;9.15;65.33
37066;BME280;22981;43.080;25.550;2023-01-10T03:00:10;98766.75;;;9.14;65.35
37066;BME280;22981;43.080;25.550;2023-01-10T03:02:56;98763.80;;;9.13;65.37
37066;BME280;22981;43.080;25.550;2023-01-10T03:08:26;98751.17;;;9.11;65.39
37066;BME280;22981;43.080;25.550;2023-01-10T03:10:57;98747.93;;;9.09;65.35
37066;BME280;22981;43.080;25.550;2023-01-10T03:13:42;98748.66;;;9.07;65.43
37066;BME280;22981;43.080;25.550;2023-01-10T03:16:11;98760.63;;;9.04;65.49
37066;BME280;22981;43.080;25.550;2023-01-10T03:18:47;98743.72;;;9.01;65.52
37066;BME280;22981;43.080;25.550;2023-01-10T03:21:15;98746.62;;;8.99;65.60
37066;BME280;22981;43.080;25.550;2023-01-10T03:23:45;98739.59;;;8.96;65.71
37066;BME280;22981;43.080;25.550;2023-01-10T03:26:16;98730.16;;;8.93;65.77
37066;BME280;22981;43.080;25.550;2023-01-10T03:28:48;98728.25;;;8.91;65.90
37066;BME280;22981;43.080;25.550;2023-01-10T03:31:26;98721.79;;;8.90;65.98
37066;BME280;22981;43.080;25.550;2023-01-10T03:33:54;98712.16;;;8.89;66.04
37066;BME280;22981;43.080;25.550;2023-01-10T03:36:30;98709.49;;;8.89;66.08
37066;BME280;22981;43.080;25.550;2023-01-10T03:39:17;98714.02;;;8.88;66.14
37066;BME280;22981;43.080;25.550;2023-01-10T03:41:58;98707.06;;;8.87;66.20
37066;BME280;22981;43.080;25.550;2023-01-10T03:44:32;98696.06;;;8.86;66.24
37066;BME280;22981;43.080;25.550;2023-01-10T03:49:56;98698.41;;;8.83;66.42
37066;BME280;22981;43.080;25.550;2023-01-10T03:52:25;98699.94;;;8.81;66.48
37066;BME280;22981;43.080;25.550;2023-01-10T03:54:53;98691.56;;;8.77;66.54
37066;BME280;22981;43.080;25.550;2023-01-10T03:57:24;98694.23;;;8.77;66.68
37066;BME280;22981;43.080;25.550;2023-01-10T03:59:54;98688.45;;;8.81;66.72
37066;BME280;22981;43.080;25.550;2023-01-10T04:02:28;98686.55;;;8.78;66.74
37066;BME280;22981;43.080;25.550;2023-01-10T04:04:56;98686.99;;;8.75;66.80
37066;BME280;22981;43.080;25.550;2023-01-10T04:07:25;98692.05;;;8.74;66.89
37066;BME280;22981;43.080;25.550;2023-01-10T04:09:53;98680.61;;;8.76;66.99
37066;BME280;22981;43.080;25.550;2023-01-10T04:12:20;98682.98;;;8.75;67.03
37066;BME280;22981;43.080;25.550;2023-01-10T04:14:48;98679.22;;;8.74;67.16
37066;BME280;22981;43.080;25.550;2023-01-10T04:17:16;98681.21;;;8.78;67.30
37066;BME280;22981;43.080;25.550;2023-01-10T04:19:44;98688.90;;;8.87;67.36
37066;BME280;22981;43.080;25.550;2023-01-10T04:22:12;98677.83;;;8.92;67.44
37066;BME280;22981;43.080;25.550;2023-01-10T04:24:39;98678.47;;;8.97;67.51
37066;BME280;22981;43.080;25.550;2023-01-10T04:27:09;98690.48;;;8.97;67.63
37066;BME280;22981;43.080;25.550;2023-01-10T04:29:36;98689.67;;;8.96;67.74
37066;BME280;22981;43.080;25.550;2023-01-10T04:32:04;98696.06;;;8.95;67.93
37066;BME280;22981;43.080;25.550;2023-01-10T04:34:31;98686.77;;;8.98;68.10
37066;BME280;22981;43.080;25.550;2023-01-10T04:36:59;98685.72;;;8.99;68.18
37066;BME280;22981;43.080;25.550;2023-01-10T04:39:26;98680.91;;;8.98;68.28
37066;BME280;22981;43.080;25.550;2023-01-10T04:41:54;98686.56;;;8.99;68.31
37066;BME280;22981;43.080;25.550;2023-01-10T04:44:22;98686.56;;;8.99;68.45
37066;BME280;22981;43.080;25.550;2023-01-10T04:46:49;98686.61;;;9.02;68.44
37066;BME280;22981;43.080;25.550;2023-01-10T04:49:17;98683.65;;;9.01;68.44
37066;BME280;22981;43.080;25.550;2023-01-10T04:51:44;98695.38;;;9.00;68.52
37066;BME280;22981;43.080;25.550;2023-01-10T04:54:12;98681.22;;;8.99;68.63
37066;BME280;22981;43.080;25.550;2023-01-10T04:56:39;98668.61;;;8.97;68.71
37066;BME280;22981;43.080;25.550;2023-01-10T04:59:08;98666.09;;;8.93;68.79
37066;BME280;22981;43.080;25.550;2023-01-10T05:01:36;98664.92;;;8.89;68.92
37066;BME280;22981;43.080;25.550;2023-01-10T05:04:05;98668.88;;;8.87;69.04
37066;BME280;22981;43.080;25.550;2023-01-10T05:06:33;98660.14;;;8.80;69.12
37066;BME280;22981;43.080;25.550;2023-01-10T05:09:00;98662.84;;;8.70;69.31
37066;BME280;22981;43.080;25.550;2023-01-10T05:11:28;98654.61;;;8.72;69.62
37066;BME280;22981;43.080;25.550;2023-01-10T05:13:55;98642.20;;;8.77;69.79
37066;BME280;22981;43.080;25.550;2023-01-10T05:16:23;98632.77;;;8.84;69.91
37066;BME280;22981;43.080;25.550;2023-01-10T05:18:51;98652.70;;;8.91;69.93
37066;BME280;22981;43.080;25.550;2023-01-10T05:21:18;98656.99;;;8.92;69.98
37066;BME280;22981;43.080;25.550;2023-01-10T05:23:46;98654.89;;;8.94;70.06
37066;BME280;22981;43.080;25.550;2023-01-10T05:26:16;98655.66;;;8.92;70.12
37066;BME280;22981;43.080;25.550;2023-01-10T05:28:44;98654.41;;;8.85;70.03
37066;BME280;22981;43.080;25.550;2023-01-10T05:31:14;98663.89;;;8.69;70.05
37066;BME280;22981;43.080;25.550;2023-01-10T05:33:47;98658.67;;;8.53;70.09
37066;BME280;22981;43.080;25.550;2023-01-10T05:36:16;98654.08;;;8.42;70.21
37066;BME280;22981;43.080;25.550;2023-01-10T05:38:43;98665.78;;;8.32;70.31
37066;BME280;22981;43.080;25.550;2023-01-10T05:41:11;98661.48;;;8.22;70.43
37066;BME280;22981;43.080;25.550;2023-01-10T05:43:39;98661.58;;;8.15;70.56
37066;BME280;22981;43.080;25.550;2023-01-10T05:46:06;98666.83;;;8.13;70.62
37066;BME280;22981;43.080;25.550;2023-01-10T05:48:34;98668.77;;;8.15;70.71
37066;BME280;22981;43.080;25.550;2023-01-10T05:51:02;98673.86;;;8.16;70.77
37066;BME280;22981;43.080;25.550;2023-01-10T05:53:29;98681.14;;;8.18;70.89
37066;BME280;22981;43.080;25.550;2023-01-10T05:55:59;98674.53;;;8.21;71.09
37066;BME280;22981;43.080;25.550;2023-01-10T05:58:28;98683.13;;;8.32;71.29
37066;BME280;22981;43.080;25.550;2023-01-10T06:00:56;98673.36;;;8.44;71.36
37066;BME280;22981;43.080;25.550;2023-01-10T06:03:24;98666.89;;;8.43;70.95
37066;BME280;22981;43.080;25.550;2023-01-10T06:05:53;98664.22;;;8.34;70.86
37066;BME280;22981;43.080;25.550;2023-01-10T06:08:21;98666.23;;;8.29;71.06
37066;BME280;22981;43.080;25.550;2023-01-10T06:10:49;98663.41;;;8.33;71.31
37066;BME280;22981;43.080;25.550;2023-01-10T06:13:17;98664.17;;;8.40;71.39
37066;BME280;22981;43.080;25.550;2023-01-10T06:15:44;98672.55;;;8.44;71.38
37066;BME280;22981;43.080;25.550;2023-01-10T06:18:12;98674.59;;;8.51;71.43
37066;BME280;22981;43.080;25.550;2023-01-10T06:20:40;98679.72;;;8.52;71.31
37066;BME280;22981;43.080;25.550;2023-01-10T06:23:08;98674.72;;;8.56;71.40
37066;BME280;22981;43.080;25.550;2023-01-10T06:25:37;98682.13;;;8.63;71.47
37066;BME280;22981;43.080;25.550;2023-01-10T06:28:07;98683.30;;;8.67;71.43
37066;BME280;22981;43.080;25.550;2023-01-10T06:30:35;98679.46;;;8.63;71.30
37066;BME280;22981;43.080;25.550;2023-01-10T06:33:04;98681.71;;;8.57;71.37
37066;BME280;22981;43.080;25.550;2023-01-10T06:35:32;98679.20;;;8.53;71.50
37066;BME280;22981;43.080;25.550;2023-01-10T06:38:00;98680.95;;;8.59;71.81
37066;BME280;22981;43.080;25.550;2023-01-10T06:40:28;98703.95;;;8.81;72.34
37066;BME280;22981;43.080;25.550;2023-01-10T06:42:55;98689.14;;;9.18;72.80
37066;BME280;22981;43.080;25.550;2023-01-10T06:45:24;98689.07;;;9.48;72.80
37066;BME280;22981;43.080;25.550;2023-01-10T06:47:52;98693.88;;;9.72;72.52
37066;BME280;22981;43.080;25.550;2023-01-10T06:50:19;98680.86;;;9.99;72.72
37066;BME280;22981;43.080;25.550;2023-01-10T06:52:57;98685.77;;;10.16;72.64
37066;BME280;22981;43.080;25.550;2023-01-10T06:55:26;98708.56;;;10.31;72.52
37066;BME280;22981;43.080;25.550;2023-01-10T06:57:56;98705.21;;;10.49;72.53
37066;BME280;22981;43.080;25.550;2023-01-10T07:00:25;98717.73;;;10.61;72.45
37066;BME280;22981;43.080;25.550;2023-01-10T07:02:54;98706.64;;;10.69;72.63
37066;BME280;22981;43.080;25.550;2023-01-10T07:05:22;98702.00;;;10.78;72.74
37066;BME280;22981;43.080;25.550;2023-01-10T07:07:50;98700.53;;;10.85;72.73
37066;BME280;22981;43.080;25.550;2023-01-10T07:10:17;98710.52;;;10.90;72.36
37066;BME280;22981;43.080;25.550;2023-01-10T07:12:45;98719.70;;;10.94;72.27
37066;BME280;22981;43.080;25.550;2023-01-10T07:15:12;98709.73;;;10.92;72.20
37066;BME280;22981;43.080;25.550;2023-01-10T07:17:40;98706.50;;;10.90;72.23
37066;BME280;22981;43.080;25.550;2023-01-10T07:20:08;98717.21;;;10.90;72.14
37066;BME280;22981;43.080;25.550;2023-01-10T07:22:36;98721.56;;;10.93;71.87
37066;BME280;22981;43.080;25.550;2023-01-10T07:25:04;98718.64;;;10.95;71.62
37066;BME280;22981;43.080;25.550;2023-01-10T07:27:32;98720.78;;;10.95;71.52
37066;BME280;22981;43.080;25.550;2023-01-10T07:29:59;98729.63;;;10.96;71.48
37066;BME280;22981;43.080;25.550;2023-01-10T07:32:27;98734.15;;;10.93;71.49
37066;BME280;22981;43.080;25.550;2023-01-10T07:34:55;98725.50;;;10.88;71.64
37066;BME280;22981;43.080;25.550;2023-01-10T07:37:22;98738.30;;;10.86;71.81
37066;BME280;22981;43.080;25.550;2023-01-10T07:39:50;98728.17;;;10.88;71.81
37066;BME280;22981;43.080;25.550;2023-01-10T07:42:18;98744.77;;;10.88;71.70
37066;BME280;22981;43.080;25.550;2023-01-10T07:44:45;98742.59;;;10.87;71.70
37066;BME280;22981;43.080;25.550;2023-01-10T07:47:13;98733.00;;;10.89;71.68
37066;BME280;22981;43.080;25.550;2023-01-10T07:49:40;98730.55;;;10.87;71.74
37066;BME280;22981;43.080;25.550;2023-01-10T07:52:08;98735.34;;;10.85;71.70
37066;BME280;22981;43.080;25.550;2023-01-10T07:54:35;98732.94;;;10.86;71.75
37066;BME280;22981;43.080;25.550;2023-01-10T07:57:03;98748.79;;;10.88;71.90
37066;BME280;22981;43.080;25.550;2023-01-10T07:59:31;98738.08;;;10.88;71.96
37066;BME280;22981;43.080;25.550;2023-01-10T08:01:58;98756.32;;;10.91;72.12
37066;BME280;22981;43.080;25.550;2023-01-10T08:04:26;98754.52;;;10.94;72.26
37066;BME280;22981;43.080;25.550;2023-01-10T08:06:54;98758.81;;;10.95;72.25
37066;BME280;22981;43.080;25.550;2023-01-10T08:09:21;98745.14;;;10.94;72.32
37066;BME280;22981;43.080;25.550;2023-01-10T08:11:49;98748.29;;;10.91;72.56
37066;BME280;22981;43.080;25.550;2023-01-10T08:14:17;98742.38;;;10.89;72.60
37066;BME280;22981;43.080;25.550;2023-01-10T08:16:44;98746.39;;;10.89;72.83
37066;BME280;22981;43.080;25.550;2023-01-10T08:19:12;98732.19;;;10.88;72.80
37066;BME280;22981;43.080;25.550;2023-01-10T08:21:41;98728.98;;;10.89;72.90
37066;BME280;22981;43.080;25.550;2023-01-10T08:24:09;98715.81;;;10.87;72.78
37066;BME280;22981;43.080;25.550;2023-01-10T08:26:36;98718.21;;;10.86;72.87
37066;BME280;22981;43.080;25.550;2023-01-10T08:29:04;98723.81;;;10.85;72.75
37066;BME280;22981;43.080;25.550;2023-01-10T08:31:31;98709.96;;;10.88;72.59
37066;BME280;22981;43.080;25.550;2023-01-10T08:33:59;98709.38;;;10.86;72.46
37066;BME280;22981;43.080;25.550;2023-01-10T08:36:26;98709.65;;;10.87;72.44
37066;BME280;22981;43.080;25.550;2023-01-10T08:38:55;98711.30;;;10.88;72.32
37066;BME280;22981;43.080;25.550;2023-01-10T08:41:22;98711.80;;;10.87;72.18
37066;BME280;22981;43.080;25.550;2023-01-10T08:43:50;98701.67;;;10.89;72.04
37066;BME280;22981;43.080;25.550;2023-01-10T08:46:18;98704.35;;;10.89;71.91
37066;BME280;22981;43.080;25.550;2023-01-10T08:48:45;98705.41;;;10.88;71.83
37066;BME280;22981;43.080;25.550;2023-01-10T08:51:15;98691.44;;;10.86;71.88
37066;BME280;22981;43.080;25.550;2023-01-10T08:53:43;98685.52;;;10.84;71.89
37066;BME280;22981;43.080;25.550;2023-01-10T08:56:11;98685.22;;;10.83;71.92
37066;BME280;22981;43.080;25.550;2023-01-10T08:58:38;98685.72;;;10.80;72.02
37066;BME280;22981;43.080;25.550;2023-01-10T09:01:07;98683.26;;;10.78;72.11
37066;BME280;22981;43.080;25.550;2023-01-10T09:03:36;98684.91;;;10.80;72.08
37066;BME280;22981;43.080;25.550;2023-01-10T09:06:05;98674.47;;;10.81;72.02
37066;BME280;22981;43.080;25.550;2023-01-10T09:08:34;98674.22;;;10.82;71.90
37066;BME280;22981;43.080;25.550;2023-01-10T09:11:03;98676.43;;;10.85;71.78
37066;BME280;22981;43.080;25.550;2023-01-10T09:13:31;98662.04;;;10.89;71.64
37066;BME280;22981;43.080;25.550;2023-01-10T09:15:59;98651.89;;;10.91;71.53
37066;BME280;22981;43.080;25.550;2023-01-10T09:18:26;98659.00;;;10.99;71.37
37066;BME280;22981;43.080;25.550;2023-01-10T09:20:54;98648.34;;;11.02;71.20
37066;BME280;22981;43.080;25.550;2023-01-10T09:23:22;98649.42;;;11.03;71.18
37066;BME280;22981;43.080;25.550;2023-01-10T09:25:52;98647.33;;;11.06;71.24
37066;BME280;22981;43.080;25.550;2023-01-10T09:28:20;98641.47;;;11.09;71.17
37066;BME280;22981;43.080;25.550;2023-01-10T09:30:50;98632.95;;;11.12;71.07
37066;BME280;22981;43.080;25.550;2023-01-10T09:33:17;98619.89;;;11.15;70.99
37066;BME280;22981;43.080;25.550;2023-01-10T09:35:45;98616.20;;;11.19;70.94
37066;BME280;22981;43.080;25.550;2023-01-10T09:38:15;98615.19;;;11.22;70.79
37066;BME280;22981;43.080;25.550;2023-01-10T09:46:09;98611.66;;;11.39;70.17
37066;BME280;22981;43.080;25.550;2023-01-10T09:51:38;98594.12;;;11.48;69.91
37066;BME280;22981;43.080;25.550;2023-01-10T09:54:51;98598.17;;;11.50;69.76
37066;BME280;22981;43.080;25.550;2023-01-10T09:56:39;98586.16;;;11.53;69.68
37066;BME280;22981;43.080;25.550;2023-01-10T09:59:14;98584.54;;;11.52;69.72
37066;BME280;22981;43.080;25.550;2023-01-10T10:01:43;98583.20;;;11.52;69.67
37066;BME280;22981;43.080;25.550;2023-01-10T10:04:33;98576.77;;;11.53;69.70
37066;BME280;22981;43.080;25.550;2023-01-10T10:06:56;98563.91;;;11.52;69.70
37066;BME280;22981;43.080;25.550;2023-01-10T10:09:30;98554.22;;;11.51;69.76
37066;BME280;22981;43.080;25.550;2023-01-10T10:12:30;98551.27;;;11.50;69.83
37066;BME280;22981;43.080;25.550;2023-01-10T10:20:55;98521.72;;;11.45;69.97
37066;BME280;22981;43.080;25.550;2023-01-10T10:39:41;98470.53;;;11.47;70.17
37066;BME280;22981;43.080;25.550;2023-01-10T10:42:13;98477.55;;;11.48;70.18
37066;BME280;22981;43.080;25.550;2023-01-10T10:44:45;98484.52;;;11.49;70.20
37066;BME280;22981;43.080;25.550;2023-01-10T10:47:12;98473.00;;;11.51;70.17
37066;BME280;22981;43.080;25.550;2023-01-10T10:49:57;98463.39;;;11.52;70.15
37066;BME280;22981;43.080;25.550;2023-01-10T10:52:27;98467.94;;;11.52;70.19
37066;BME280;22981;43.080;25.550;2023-01-10T10:54:57;98462.58;;;11.52;70.25
37066;BME280;22981;43.080;25.550;2023-01-10T10:57:26;98460.13;;;11.50;70.27
37066;BME280;22981;43.080;25.550;2023-01-10T10:59:55;98467.63;;;11.48;70.44
37066;BME280;22981;43.080;25.550;2023-01-10T11:02:28;98456.60;;;11.47;70.50
37066;BME280;22981;43.080;25.550;2023-01-10T11:04:57;98454.19;;;11.46;70.67
37066;BME280;22981;43.080;25.550;2023-01-10T11:07:25;98452.80;;;11.43;70.85
37066;BME280;22981;43.080;25.550;2023-01-10T11:09:54;98442.33;;;11.39;70.98
37066;BME280;22981;43.080;25.550;2023-01-10T11:12:32;98454.34;;;11.37;71.17
37066;BME280;22981;43.080;25.550;2023-01-10T11:15:00;98447.33;;;11.33;71.44
37066;BME280;22981;43.080;25.550;2023-01-10T11:17:30;98456.11;;;11.28;71.68
37066;BME280;22981;43.080;25.550;2023-01-10T11:20:03;98459.01;;;11.24;71.94
37066;BME280;22981;43.080;25.550;2023-01-10T11:22:37;98446.41;;;11.22;72.11
37066;BME280;22981;43.080;25.550;2023-01-10T11:25:04;98444.75;;;11.19;72.25
37066;BME280;22981;43.080;25.550;2023-01-10T11:27:36;98438.00;;;11.16;72.36
37066;BME280;22981;43.080;25.550;2023-01-10T11:30:07;98431.84;;;11.16;72.44
37066;BME280;22981;43.080;25.550;2023-01-10T11:32:36;98414.43;;;11.16;72.48
37066;BME280;22981;43.080;25.550;2023-01-10T11:35:14;98411.22;;;11.16;72.44
37066;BME280;22981;43.080;25.550;2023-01-10T11:37:36;98397.51;;;11.13;72.46
37066;BME280;22981;43.080;25.550;2023-01-10T11:40:21;98411.16;;;11.11;72.71
37066;BME280;22981;43.080;25.550;2023-01-10T11:42:50;98405.25;;;11.09;72.91
37066;BME280;22981;43.080;25.550;2023-01-10T11:45:23;98415.13;;;11.09;73.11
37066;BME280;22981;43.080;25.550;2023-01-10T11:50:23;98429.05;;;11.06;73.66
37066;BME280;22981;43.080;25.550;2023-01-10T11:52:52;98431.14;;;11.03;73.97
37066;BME280;22981;43.080;25.550;2023-01-10T11:55:24;98433.27;;;11.01;74.39
37066;BME280;22981;43.080;25.550;2023-01-10T11:58:01;98422.78;;;11.00;74.46
37066;BME280;22981;43.080;25.550;2023-01-10T12:00:44;98423.05;;;10.98;74.60
37066;BME280;22981;43.080;25.550;2023-01-10T12:03:20;98423.00;;;10.96;74.74
37066;BME280;22981;43.080;25.550;2023-01-10T12:05:53;98418.98;;;10.96;74.77
37066;BME280;22981;43.080;25.550;2023-01-10T12:08:27;98411.73;;;10.94;74.89
37066;BME280;22981;43.080;25.550;2023-01-10T12:11:18;98404.47;;;10.92;75.09
37066;BME280;22981;43.080;25.550;2023-01-10T12:13:50;98407.41;;;10.90;75.30
37066;BME280;22981;43.080;25.550;2023-01-10T12:16:27;98403.64;;;10.89;75.49
37066;BME280;22981;43.080;25.550;2023-01-10T12:19:03;98408.47;;;10.89;75.56
37066;BME280;22981;43.080;25.550;2023-01-10T12:21:39;98415.92;;;10.87;75.74
37066;BME280;22981;43.080;25.550;2023-01-10T12:24:17;98414.31;;;10.86;75.98
37066;BME280;22981;43.080;25.550;2023-01-10T12:26:41;98407.87;;;10.85;76.21
37066;BME280;22981;43.080;25.550;2023-01-10T12:29:25;98406.48;;;10.82;76.36
37066;BME280;22981;43.080;25.550;2023-01-10T12:31:49;98408.89;;;10.81;76.54
37066;BME280;22981;43.080;25.550;2023-01-10T12:34:19;98407.50;;;10.78;76.73
37066;BME280;22981;43.080;25.550;2023-01-10T12:39:39;98406.36;;;10.72;77.17
37066;BME280;22981;43.080;25.550;2023-01-10T12:42:10;98402.06;;;10.71;77.28
37066;BME280;22981;43.080;25.550;2023-01-10T12:50:40;98410.51;;;10.63;77.91
37066;BME280;22981;43.080;25.550;2023-01-10T14:02:59;98434.29;;;7.99;79.00
37066;BME280;22981;43.080;25.550;2023-01-10T14:05:32;98442.83;;;7.68;78.73
37066;BME280;22981;43.080;25.550;2023-01-10T14:21:31;98441.33;;;6.78;78.62
37066;BME280;22981;43.080;25.550;2023-01-10T14:30:39;98441.75;;;6.66;78.93
37066;BME280;22981;43.080;25.550;2023-01-10T14:39:56;98467.03;;;6.75;78.84
37066;BME280;22981;43.080;25.550;2023-01-10T14:52:29;98450.34;;;6.77;78.51
37066;BME280;22981;43.080;25.550;2023-01-10T14:55:21;98449.68;;;6.72;78.57
37066;BME280;22981;43.080;25.550;2023-01-10T14:58:01;98447.83;;;6.73;78.63
37066;BME280;22981;43.080;25.550;2023-01-10T15:00:43;98450.48;;;6.73;78.59
37066;BME280;22981;43.080;25.550;2023-01-10T15:03:44;98452.16;;;6.67;78.64
37066;BME280;22981;43.080;25.550;2023-01-10T15:06:23;98460.36;;;6.66;78.77
37066;BME280;22981;43.080;25.550;2023-01-10T15:08:59;98476.98;;;6.61;78.82
37066;BME280;22981;43.080;25.550;2023-01-10T15:11:30;98470.56;;;6.60;78.83
37066;BME280;22981;43.080;25.550;2023-01-10T15:14:04;98477.20;;;6.60;78.75
37066;BME280;22981;43.080;25.550;2023-01-10T15:16:33;98478.22;;;6.59;78.64
37066;BME280;22981;43.080;25.550;2023-01-10T15:19:02;98516.09;;;6.54;78.58
37066;BME280;22981;43.080;25.550;2023-01-10T15:21:30;98510.91;;;6.50;78.59
37066;BME280;22981;43.080;25.550;2023-01-10T15:23:57;98516.16;;;6.47;78.58
37066;BME280;22981;43.080;25.550;2023-01-10T15:26:27;98506.47;;;6.44;78.62
37066;BME280;22981;43.080;25.550;2023-01-10T15:29:04;98508.61;;;6.44;78.63
37066;BME280;22981;43.080;25.550;2023-01-10T15:31:34;98499.44;;;6.40;78.54
37066;BME280;22981;43.080;25.550;2023-01-10T15:34:10;98497.43;;;6.36;78.49
37066;BME280;22981;43.080;25.550;2023-01-10T15:36:33;98498.08;;;6.31;78.44
37066;BME280;22981;43.080;25.550;2023-01-10T15:39:01;98513.13;;;6.28;78.43
37066;BME280;22981;43.080;25.550;2023-01-10T15:41:29;98522.84;;;6.25;78.45
37066;BME280;22981;43.080;25.550;2023-01-10T15:44:20;98529.72;;;6.23;78.50
37066;BME280;22981;43.080;25.550;2023-01-10T15:46:28;98543.00;;;6.23;78.43
37066;BME280;22981;43.080;25.550;2023-01-10T15:49:01;98556.71;;;6.20;78.43
37066;BME280;22981;43.080;25.550;2023-01-10T15:51:34;98562.99;;;6.17;78.30
37066;BME280;22981;43.080;25.550;2023-01-10T15:54:05;98569.64;;;6.17;78.07
37066;BME280;22981;43.080;25.550;2023-01-10T15:56:41;98571.67;;;6.15;77.79
37066;BME280;22981;43.080;25.550;2023-01-10T15:59:18;98582.02;;;6.14;77.49
37066;BME280;22981;43.080;25.550;2023-01-10T16:01:34;98582.65;;;6.09;77.29